Time;durP1;ratioP1;P1;durP2;ratioP2;P2;SDS_P1;SDS_P2;PMS_P1;PMS_P2;Temp;Humidity;BMP_temperature;BMP_pressure;BME280_temperature;BME280_humidity;BME280_pressure;Samples;Min_cycle;Max_cycle;Signal;HPM_P1;HPM_P2
2024/03/04 00:01:41;;;;;;;10.10;3.28;;;;;;;11.53;73.03;100925.38;5054985;28;20705;-80
2024/03/04 00:04:07;;;;;;;9.27;3.22;;;;;;;11.81;72.93;100931.78;5060761;28;20036;-80
2024/03/04 00:06:32;;;;;;;10.25;3.00;;;;;;;11.71;72.40;100933.38;5057856;28;20039;-80
2024/03/04 00:08:58;;;;;;;5.28;2.50;;;;;;;11.75;71.98;100932.63;5054745;28;20044;-79
2024/03/04 00:11:23;;;;;;;9.45;3.03;;;;;;;11.83;72.03;100934.44;5063982;28;20056;-78
2024/03/04 00:13:48;;;;;;;9.32;3.10;;;;;;;11.53;73.19;100951.47;5057009;28;20066;-78
2024/03/04 00:16:14;;;;;;;7.95;2.85;;;;;;;11.44;73.86;100946.19;5035407;28;20037;-79
2024/03/04 00:18:40;;;;;;;6.95;2.63;;;;;;;11.56;73.39;100940.22;5055521;28;20080;-79
2024/03/04 00:21:06;;;;;;;8.50;2.47;;;;;;;11.76;72.76;100943.94;5054566;28;20037;-78
2024/03/04 00:23:37;;;;;;;7.28;2.40;;;;;;;11.79;72.80;100947.44;5057060;28;20037;-79
2024/03/04 00:26:09;;;;;;;7.20;2.50;;;;;;;11.75;72.52;100952.63;5052946;28;20120;-79
2024/03/04 00:28:37;;;;;;;7.32;2.55;;;;;;;11.83;72.36;100953.59;5035374;28;20083;-80
2024/03/04 00:31:03;;;;;;;8.02;2.97;;;;;;;11.73;72.01;100957.81;5052959;28;20067;-78
2024/03/04 00:33:30;;;;;;;8.32;2.67;;;;;;;11.86;72.08;100953.59;5053985;28;20534;-79
2024/03/04 00:35:59;;;;;;;9.18;2.63;;;;;;;11.89;72.02;100966.72;5052925;28;20068;-80
2024/03/04 00:38:43;;;;;;;7.28;2.30;;;;;;;11.91;71.82;100977.16;5053672;28;20390;-79
2024/03/04 00:41:09;;;;;;;6.00;2.30;;;;;;;11.80;71.41;100977.06;5035472;28;20036;-80
2024/03/04 00:43:37;;;;;;;6.47;2.50;;;;;;;11.74;71.84;100979.59;5037362;28;20450;-79
2024/03/04 00:46:02;;;;;;;8.35;2.63;;;;;;;11.83;71.80;100971.00;5035580;28;20040;-80
2024/03/04 00:48:28;;;;;;;6.30;2.30;;;;;;;11.54;71.92;100968.03;5054558;28;20029;-79
2024/03/04 00:50:56;;;;;;;4.93;2.03;;;;;;;11.53;71.68;100969.75;5054799;28;20036;-79
2024/03/04 00:53:31;;;;;;;3.65;1.90;;;;;;;11.73;71.06;100970.88;5052685;28;20075;-79
2024/03/04 00:55:56;;;;;;;;;;;;;;;11.67;70.50;100957.72;5053934;28;20052;-78
2024/03/04 00:58:34;;;;;;;5.50;2.05;;;;;;;11.49;71.08;100973.19;5056699;28;20504;-80
2024/03/04 01:00:59;;;;;;;7.95;1.70;;;;;;;11.75;70.57;100968.31;5062021;28;20104;-81
2024/03/04 01:03:25;;;;;;;4.57;1.83;;;;;;;11.56;70.83;100981.97;5045251;28;20036;-79
2024/03/04 01:05:51;;;;;;;4.13;1.40;;;;;;;11.36;71.35;100974.78;5048887;28;20037;-79
2024/03/04 01:08:16;;;;;;;3.45;1.30;;;;;;;11.35;71.27;100973.03;5065291;28;20041;-80
2024/03/04 01:10:47;;;;;;;4.03;1.40;;;;;;;11.53;70.50;100974.97;5061536;28;20517;-81
2024/03/04 01:13:12;;;;;;;9.13;1.40;;;;;;;11.59;69.39;100976.78;5058361;28;20049;-78
2024/03/04 01:15:38;;;;;;;3.95;1.20;;;;;;;11.53;69.71;100972.38;5061925;28;20037;-78
2024/03/04 01:18:10;;;;;;;4.85;1.30;;;;;;;11.75;68.64;100965.69;5049633;28;20044;-79
2024/03/04 01:20:39;;;;;;;4.30;1.10;;;;;;;11.35;69.38;100975.66;5069818;28;20147;-79
2024/03/04 01:23:05;;;;;;;6.15;1.50;;;;;;;11.29;69.70;100985.13;5065808;28;20029;-79
2024/03/04 01:25:31;;;;;;;3.25;1.10;;;;;;;11.49;69.13;100986.25;5068971;28;20120;-79
2024/03/04 01:27:57;;;;;;;2.17;1.10;;;;;;;11.82;68.22;100987.53;5056218;28;20052;-81
2024/03/04 01:30:24;;;;;;;2.05;1.00;;;;;;;11.67;67.96;100986.47;5055852;28;20037;-78
2024/03/04 01:32:50;;;;;;;3.38;1.10;;;;;;;11.58;68.48;100996.81;5038700;28;20039;-80
2024/03/04 01:35:18;;;;;;;3.17;1.10;;;;;;;11.41;69.25;100995.72;5037717;28;20112;-79
2024/03/04 01:37:44;;;;;;;4.70;1.23;;;;;;;11.46;68.93;100998.41;5057431;28;20100;-79
2024/03/04 01:40:13;;;;;;;4.13;1.30;;;;;;;11.41;69.77;101003.56;5058756;28;20727;-78
2024/03/04 01:42:45;;;;;;;6.03;1.38;;;;;;;11.12;70.30;101004.94;5061665;28;20037;-79
2024/03/04 01:45:27;;;;;;;4.35;1.50;;;;;;;11.53;68.75;101015.88;5059121;28;20041;-79
2024/03/04 01:48:02;;;;;;;5.55;1.30;;;;;;;11.32;69.08;101011.28;5053201;28;20041;-79
2024/03/04 01:50:41;;;;;;;4.25;1.20;;;;;;;11.15;69.58;101011.09;5052563;28;20490;-80
2024/03/04 01:53:09;;;;;;;3.80;1.17;;;;;;;11.29;69.60;101016.47;5052119;28;20040;-78
2024/03/04 01:55:42;;;;;;;3.53;1.20;;;;;;;11.45;68.71;101017.53;5039273;28;20060;-80
2024/03/04 01:58:11;;;;;;;3.75;1.20;;;;;;;11.50;68.06;101023.69;5055704;28;20426;-79
2024/03/04 02:00:40;;;;;;;6.38;1.60;;;;;;;11.56;67.84;101023.75;5037640;28;20429;-79
2024/03/04 02:03:16;;;;;;;3.95;1.20;;;;;;;11.96;66.61;101022.47;5055652;28;20423;-80
2024/03/04 02:05:46;;;;;;;2.95;1.40;;;;;;;11.90;66.34;101028.53;5056358;28;20064;-80
2024/03/04 02:08:16;;;;;;;6.93;1.20;;;;;;;11.87;66.79;101027.63;5055132;28;20033;-79
2024/03/04 02:10:47;;;;;;;3.33;1.10;;;;;;;11.89;66.54;101039.84;5038798;28;20037;-80
2024/03/04 02:13:12;;;;;;;4.10;1.30;;;;;;;11.96;66.27;101039.03;5054689;28;20043;-79
2024/03/04 02:15:44;;;;;;;5.38;1.30;;;;;;;11.65;67.26;101035.19;5054932;28;20402;-80
2024/03/04 02:18:14;;;;;;;3.53;1.40;;;;;;;11.91;66.58;101045.06;5055338;28;20044;-79
2024/03/04 02:20:47;;;;;;;4.32;1.10;;;;;;;11.93;66.20;101049.47;5057268;28;20100;-80
2024/03/04 02:23:15;;;;;;;3.80;1.27;;;;;;;11.60;67.45;101049.91;5055605;28;20052;-80
2024/03/04 02:25:57;;;;;;;5.18;1.38;;;;;;;11.82;66.79;101056.31;5055386;28;20028;-80
2024/03/04 02:28:26;;;;;;;5.78;1.23;;;;;;;11.88;66.40;101065.97;5056170;28;20529;-81
2024/03/04 02:30:51;;;;;;;5.95;1.27;;;;;;;11.55;67.11;101063.78;5039736;28;20033;-78
2024/03/04 02:33:22;;;;;;;4.22;1.10;;;;;;;11.62;66.68;101063.00;5034994;28;20494;-79
2024/03/04 02:35:54;;;;;;;3.28;1.15;;;;;;;11.43;66.83;101058.41;5053257;28;20040;-79
2024/03/04 02:38:19;;;;;;;4.75;1.00;;;;;;;11.60;66.35;101056.88;5054299;28;20037;-79
2024/03/04 02:40:48;;;;;;;4.20;1.00;;;;;;;11.89;64.97;101062.50;5055653;28;20037;-80
2024/03/04 02:43:14;;;;;;;5.15;1.00;;;;;;;11.96;64.50;101057.31;5052041;28;20093;-78
2024/03/04 02:45:39;;;;;;;3.50;1.10;;;;;;;11.98;64.81;101062.56;5034782;28;20405;-78
2024/03/04 02:48:06;;;;;;;5.57;1.00;;;;;;;12.07;63.92;101062.69;5034239;28;20032;-80
2024/03/04 02:50:38;;;;;;;5.20;0.98;;;;;;;11.79;64.92;101059.75;5052667;28;20041;-79
2024/03/04 02:53:04;;;;;;;4.63;1.10;;;;;;;12.02;63.93;101064.34;5052637;28;20073;-78
2024/03/04 02:55:29;;;;;;;4.95;1.13;;;;;;;12.23;63.09;101055.84;5052890;28;20037;-79
2024/03/04 02:57:57;;;;;;;3.63;0.95;;;;;;;12.20;63.54;101060.19;5052959;28;20129;-79
2024/03/04 03:00:23;;;;;;;2.78;0.85;;;;;;;11.95;64.39;101066.06;5051671;28;20126;-79
2024/03/04 03:02:49;;;;;;;3.78;0.95;;;;;;;12.22;63.66;101069.78;5052561;28;20425;-80
2024/03/04 03:05:15;;;;;;;1.95;0.90;;;;;;;12.16;63.21;101084.56;5034029;28;20120;-79
2024/03/04 03:07:43;;;;;;;2.38;1.00;;;;;;;12.01;64.20;101086.13;5052773;28;20131;-79
2024/03/04 03:10:09;;;;;;;4.18;1.10;;;;;;;11.92;64.15;101086.03;5035672;28;20040;-79
2024/03/04 03:12:35;;;;;;;5.82;1.10;;;;;;;12.11;63.73;101093.22;5054158;28;20486;-80
2024/03/04 03:15:00;;;;;;;3.58;0.95;;;;;;;12.39;62.19;101094.34;5054034;28;20044;-79
2024/03/04 03:17:32;;;;;;;2.40;0.98;;;;;;;12.29;62.41;101093.38;5034876;28;20040;-79
2024/03/04 03:20:00;;;;;;;4.63;1.02;;;;;;;12.25;62.48;101099.47;5037251;28;20498;-79
2024/03/04 03:22:48;;;;;;;4.93;1.30;;;;;;;11.79;64.16;101103.28;5053142;28;20040;-79
2024/03/04 03:25:14;;;;;;;4.10;1.15;;;;;;;11.92;63.64;101101.69;5034482;28;20110;-79
2024/03/04 03:27:40;;;;;;;4.18;1.20;;;;;;;11.78;63.27;101109.34;5053371;28;20053;-79
2024/03/04 03:30:12;;;;;;;4.15;0.70;;;;;;;11.68;63.89;101104.88;5054362;28;20506;-78
2024/03/04 03:32:38;;;;;;;2.60;0.60;;;;;;;11.96;63.17;101114.81;5036914;28;20102;-80
2024/03/04 03:35:04;;;;;;;3.15;0.85;;;;;;;11.98;62.99;101110.47;5053005;28;20037;-80
2024/03/04 03:37:30;;;;;;;3.47;0.90;;;;;;;12.12;62.22;101103.69;5055683;28;20073;-79
2024/03/04 03:39:58;;;;;;;7.95;1.05;;;;;;;11.87;62.87;101109.50;5035284;28;20037;-80
2024/03/04 03:42:30;;;;;;;2.58;0.90;;;;;;;11.91;62.95;101108.66;5052857;28;20041;-78
2024/03/04 03:44:58;;;;;;;3.25;0.80;;;;;;;11.65;63.44;101117.88;5052692;28;20550;-79
2024/03/04 03:47:23;;;;;;;4.47;0.80;;;;;;;11.54;64.46;101122.06;5051211;28;20127;-78
2024/03/04 03:49:49;;;;;;;2.00;0.70;;;;;;;11.59;63.88;101123.88;5051630;28;20144;-78
2024/03/04 03:52:14;;;;;;;3.67;0.85;;;;;;;11.86;63.16;101125.13;5050552;28;20090;-80
2024/03/04 03:54:39;;;;;;;3.13;0.70;;;;;;;11.75;62.94;101123.28;5033436;28;20120;-79
2024/03/04 03:57:06;;;;;;;2.25;0.80;;;;;;;11.70;63.27;101129.28;5050542;28;20040;-77
2024/03/04 03:59:34;;;;;;;6.78;0.80;;;;;;;11.78;63.38;101133.75;5051399;28;20140;-78
2024/03/04 04:02:03;;;;;;;2.60;0.80;;;;;;;11.77;62.92;101133.75;5032884;28;20044;-79
2024/03/04 04:04:28;;;;;;;3.28;0.80;;;;;;;11.77;62.76;101134.59;5051056;28;20029;-79
2024/03/04 04:06:54;;;;;;;3.55;0.95;;;;;;;11.85;62.43;101144.28;5050813;28;20413;-78
2024/03/04 04:09:19;;;;;;;4.55;0.95;;;;;;;11.78;62.56;101148.53;5050336;28;20081;-78
2024/03/04 04:11:45;;;;;;;3.40;0.60;;;;;;;11.77;62.68;101154.66;5050982;28;20085;-78
2024/03/04 04:14:10;;;;;;;4.47;1.13;;;;;;;11.92;62.44;101147.00;5050215;28;20036;-79
2024/03/04 04:16:42;;;;;;;2.38;0.70;;;;;;;12.11;61.61;101158.53;5032741;28;20061;-78
2024/03/04 04:19:07;;;;;;;2.10;0.80;;;;;;;12.18;61.22;101148.19;5050425;28;20041;-79
2024/03/04 04:21:32;;;;;;;2.38;0.80;;;;;;;12.16;61.40;101162.09;5050482;28;20167;-78
2024/03/04 04:23:58;;;;;;;4.80;0.80;;;;;;;12.11;61.49;101158.53;5050284;28;20094;-77
2024/03/04 04:26:24;;;;;;;2.38;0.80;;;;;;;12.10;61.55;101162.00;5050996;28;20071;-80
2024/03/04 04:28:50;;;;;;;3.28;0.90;;;;;;;12.27;61.08;101156.97;5051259;28;20037;-79
2024/03/04 04:31:22;;;;;;;4.45;1.00;;;;;;;12.32;60.68;101157.91;5050717;28;20036;-80
2024/03/04 04:33:48;;;;;;;1.52;0.75;;;;;;;12.30;60.58;101160.50;5051329;28;20181;-80
2024/03/04 04:36:15;;;;;;;4.30;1.05;;;;;;;12.03;61.41;101149.72;5032866;28;20047;-79
2024/03/04 04:38:46;;;;;;;6.32;1.08;;;;;;;11.99;61.74;101154.06;5050439;28;20033;-79
2024/03/04 04:41:18;;;;;;;4.03;1.20;;;;;;;12.07;61.67;101154.16;5050012;28;20128;-77
2024/03/04 04:43:43;;;;;;;5.55;1.10;;;;;;;11.89;62.55;101154.81;5050975;28;20045;-78
2024/03/04 04:46:08;;;;;;;4.05;1.00;;;;;;;12.02;62.17;101158.41;5031909;28;20044;-77
2024/03/04 04:48:37;;;;;;;3.75;0.93;;;;;;;12.05;61.68;101156.72;5050719;28;20033;-79
2024/03/04 04:51:06;;;;;;;3.30;0.85;;;;;;;11.87;62.29;101159.13;5049948;28;20037;-79
2024/03/04 04:53:32;;;;;;;2.63;0.82;;;;;;;11.64;63.36;101156.19;5032938;28;20678;-79
2024/03/04 04:55:57;;;;;;;4.03;0.77;;;;;;;11.87;62.70;101161.75;5049713;28;20116;-77
2024/03/04 04:58:23;;;;;;;2.53;0.90;;;;;;;11.95;61.95;101152.28;5032822;28;20174;-79
2024/03/04 05:00:54;;;;;;;2.33;0.80;;;;;;;12.02;62.09;101163.63;5050509;28;20040;-78
2024/03/04 05:03:19;;;;;;;2.28;0.85;;;;;;;12.10;61.40;101157.66;5049790;28;20468;-79
2024/03/04 05:05:45;;;;;;;3.38;0.88;;;;;;;12.05;61.57;101156.72;5051140;28;20123;-79
2024/03/04 05:08:10;;;;;;;4.15;0.82;;;;;;;11.76;62.71;101160.72;5053313;28;20060;-79
2024/03/04 05:10:39;;;;;;;2.35;0.90;;;;;;;11.86;62.32;101156.47;5035580;28;20120;-79
2024/03/04 05:13:05;;;;;;;2.08;0.90;;;;;;;11.78;62.67;101159.88;5032388;28;20560;-79
2024/03/04 05:15:30;;;;;;;2.05;0.93;;;;;;;11.72;63.07;101161.50;5032474;28;20037;-79
2024/03/04 05:17:59;;;;;;;2.58;0.75;;;;;;;11.67;63.41;101169.28;5050090;28;20399;-78
2024/03/04 05:20:30;;;;;;;3.58;1.00;;;;;;;11.77;63.12;101170.31;5050538;28;20064;-79
2024/03/04 05:22:56;;;;;;;5.28;0.82;;;;;;;11.73;62.75;101176.31;5050366;28;20036;-79
2024/03/04 05:25:21;;;;;;;2.38;0.80;;;;;;;11.66;63.04;101175.34;5050027;28;20060;-78
2024/03/04 05:27:47;;;;;;;2.45;1.05;;;;;;;11.76;62.41;101176.41;5052667;28;20537;-79
2024/03/04 05:30:13;;;;;;;4.28;1.00;;;;;;;11.95;61.83;101180.13;5036993;28;20119;-80
2024/03/04 05:32:43;;;;;;;3.00;0.95;;;;;;;12.03;61.65;101188.91;5054926;28;20041;-80
2024/03/04 05:35:10;;;;;;;3.03;0.80;;;;;;;12.03;61.52;101188.91;5054586;28;20036;-78
2024/03/04 05:37:36;;;;;;;2.55;0.93;;;;;;;11.81;61.72;101186.91;5057119;28;20043;-78
2024/03/04 05:40:09;;;;;;;4.65;1.10;;;;;;;11.92;61.56;101195.75;5055909;28;20044;-78
2024/03/04 05:42:39;;;;;;;4.13;0.90;;;;;;;11.86;61.70;101196.56;5056246;28;20559;-78
2024/03/04 05:45:06;;;;;;;4.43;0.90;;;;;;;11.72;62.64;101198.06;5055688;28;20036;-79
2024/03/04 05:47:31;;;;;;;5.50;0.90;;;;;;;11.78;62.24;101190.34;5062827;28;20514;-77
2024/03/04 05:49:57;;;;;;;1.45;0.75;;;;;;;11.72;62.12;101193.72;5068385;28;20043;-78
2024/03/04 05:52:25;;;;;;;4.13;1.00;;;;;;;11.86;62.03;101195.66;5063371;28;20115;-79
2024/03/04 05:54:50;;;;;;;1.58;0.85;;;;;;;11.83;61.87;101195.66;5060303;28;20029;-79
2024/03/04 05:57:15;;;;;;;4.35;1.00;;;;;;;11.98;61.31;101195.81;5055048;28;21576;-79
2024/03/04 05:59:41;;;;;;;5.10;1.10;;;;;;;12.01;61.30;101198.50;5054429;28;20375;-78
2024/03/04 06:02:06;;;;;;;2.38;0.90;;;;;;;12.06;60.94;101196.81;5053206;28;20513;-77
2024/03/04 06:04:32;;;;;;;4.13;0.90;;;;;;;12.07;61.14;101206.41;5054317;28;20057;-79
2024/03/04 06:06:57;;;;;;;2.75;0.80;;;;;;;11.97;61.45;101196.69;5055718;28;20555;-80
2024/03/04 06:09:26;;;;;;;1.63;0.70;;;;;;;11.88;61.74;101200.06;5056835;28;20110;-79
2024/03/04 06:11:52;;;;;;;3.65;0.95;;;;;;;11.67;62.77;101200.59;5058514;28;20440;-80
2024/03/04 06:14:18;;;;;;;2.33;0.80;;;;;;;11.81;62.70;101195.63;5039488;28;20041;-78
2024/03/04 06:16:44;;;;;;;1.50;0.82;;;;;;;11.90;62.53;101200.94;5056610;28;20037;-79
2024/03/04 06:19:09;;;;;;;4.00;0.80;;;;;;;12.03;62.02;101204.59;5055318;28;20147;-79
2024/03/04 06:21:37;;;;;;;1.58;0.80;;;;;;;12.00;62.19;101205.47;5058060;28;20032;-80
2024/03/04 06:24:06;;;;;;;2.28;0.88;;;;;;;12.01;62.19;101208.94;5053748;28;20124;-78
2024/03/04 06:26:31;;;;;;;2.72;0.80;;;;;;;12.02;62.36;101202.84;5054358;28;20033;-79
2024/03/04 06:28:57;;;;;;;2.00;0.80;;;;;;;12.09;62.12;101209.91;5052853;28;20033;-79
2024/03/04 06:31:28;;;;;;;4.32;1.10;;;;;;;12.08;62.11;101205.53;5053039;28;20029;-79
2024/03/04 06:33:54;;;;;;;1.48;0.82;;;;;;;11.98;62.80;101207.16;5034911;28;20098;-78
2024/03/04 06:36:20;;;;;;;4.22;0.98;;;;;;;12.04;62.72;101211.59;5052159;28;20033;-78
2024/03/04 06:38:48;;;;;;;3.03;1.05;;;;;;;12.06;62.83;101208.16;5052075;28;20108;-78
2024/03/04 06:41:14;;;;;;;2.00;0.98;;;;;;;12.02;63.30;101202.84;5052514;28;20045;-78
2024/03/04 06:43:39;;;;;;;5.63;1.20;;;;;;;12.10;62.65;101215.16;5035059;28;20383;-78
2024/03/04 06:46:07;;;;;;;3.20;0.90;;;;;;;12.02;63.56;101210.69;5034428;28;20179;-80
2024/03/04 06:48:33;;;;;;;2.55;0.95;;;;;;;11.93;64.03;101221.91;5054029;28;20033;-79
2024/03/04 06:50:58;;;;;;;4.18;1.00;;;;;;;11.97;63.97;101225.44;5034356;28;20040;-78
2024/03/04 06:53:23;;;;;;;5.38;1.73;;;;;;;11.98;64.12;101233.28;5052202;28;20040;-78
2024/03/04 06:55:49;;;;;;;6.10;1.15;;;;;;;11.93;64.26;101234.09;5034389;28;20142;-80
2024/03/04 06:58:17;;;;;;;4.25;1.40;;;;;;;11.84;64.80;101249.63;5053130;28;20372;-79
2024/03/04 07:00:47;;;;;;;2.40;1.10;;;;;;;11.91;64.29;101262.81;5053013;28;20036;-78
2024/03/04 07:03:13;;;;;;;3.58;1.10;;;;;;;11.86;64.56;101261.88;5034447;28;20040;-79
2024/03/04 07:05:44;;;;;;;3.15;1.00;;;;;;;12.09;64.00;101273.50;5052701;28;20039;-79
2024/03/04 07:08:09;;;;;;;7.68;1.50;;;;;;;11.87;63.67;101276.69;5051665;28;20569;-80
2024/03/04 07:10:37;;;;;;;3.38;1.42;;;;;;;12.03;63.79;101280.38;5052261;28;20057;-79
2024/03/04 07:13:03;;;;;;;4.30;1.20;;;;;;;11.74;64.52;101279.97;5051876;28;20095;-79
2024/03/04 07:15:28;;;;;;;5.03;1.80;;;;;;;12.03;64.33;101283.00;5034706;28;20037;-78
2024/03/04 07:17:57;;;;;;;5.57;1.50;;;;;;;12.16;63.42;101280.56;5052121;28;20406;-79
2024/03/04 07:20:22;;;;;;;4.25;1.35;;;;;;;12.26;63.08;101280.72;5051477;28;20056;-81
2024/03/04 07:22:47;;;;;;;5.10;1.50;;;;;;;12.29;63.18;101285.97;5052100;28;20123;-79
2024/03/04 07:25:13;;;;;;;6.05;1.23;;;;;;;12.02;63.46;101289.94;5051516;28;20124;-79
2024/03/04 07:27:44;;;;;;;3.20;1.20;;;;;;;12.24;63.15;101288.53;5051990;28;20068;-78
2024/03/04 07:30:13;;;;;;;4.88;1.50;;;;;;;12.33;63.03;101295.59;5051402;28;20037;-78
2024/03/04 07:32:38;;;;;;;4.32;1.50;;;;;;;12.44;62.71;101292.25;5052366;28;20037;-79
2024/03/04 07:35:05;;;;;;;3.55;1.40;;;;;;;12.46;63.01;101297.50;5051670;28;20040;-78
2024/03/04 07:37:31;;;;;;;4.55;1.30;;;;;;;12.49;62.99;101302.78;5051823;28;20044;-79
2024/03/04 07:39:56;;;;;;;7.22;1.50;;;;;;;12.44;63.12;101299.25;5052426;28;20037;-79
2024/03/04 07:42:23;;;;;;;5.63;1.50;;;;;;;12.46;63.03;101300.13;5033703;28;20394;-79
2024/03/04 07:44:52;;;;;;;5.05;1.58;;;;;;;12.75;62.07;101301.34;5051990;28;20037;-78
2024/03/04 07:47:18;;;;;;;3.50;1.40;;;;;;;12.64;62.16;101305.56;5052326;28;20052;-79
2024/03/04 07:49:43;;;;;;;4.72;1.50;;;;;;;12.81;62.02;101301.41;5051912;28;20556;-78
2024/03/04 07:52:11;;;;;;;4.15;1.55;;;;;;;12.84;62.08;101296.22;5049763;28;20167;-78
2024/03/04 07:54:37;;;;;;;6.63;1.50;;;;;;;13.12;61.51;101296.50;5035943;28;20041;-78
2024/03/04 07:57:03;;;;;;;6.38;1.67;;;;;;;13.15;61.50;101300.06;5051702;28;20612;-79
2024/03/04 07:59:40;;;;;;;5.18;1.25;;;;;;;13.45;61.23;101306.44;5034320;28;20033;-77
2024/03/04 08:02:07;;;;;;;3.47;1.23;;;;;;;13.56;60.33;101295.19;5053769;28;20104;-79
2024/03/04 08:04:33;;;;;;;4.88;1.17;;;;;;;13.26;58.86;101302.78;5053321;28;20036;-82
2024/03/04 08:07:04;;;;;;;6.18;1.30;;;;;;;13.47;58.41;101305.59;5051689;28;20036;-79
2024/03/04 08:09:29;;;;;;;2.05;1.05;;;;;;;13.41;57.98;101305.56;5052410;28;20048;-80
2024/03/04 08:11:55;;;;;;;5.93;1.10;;;;;;;13.58;57.27;101297.81;5051999;28;20036;-79
2024/03/04 08:14:20;;;;;;;3.35;1.30;;;;;;;13.60;57.40;101311.81;5052628;28;20033;-80
2024/03/04 08:16:45;;;;;;;3.15;1.20;;;;;;;13.71;56.05;101304.91;5052784;28;20037;-79
2024/03/04 08:19:11;;;;;;;1.95;1.10;;;;;;;13.65;55.91;101315.34;5052990;28;20045;-80
2024/03/04 08:21:37;;;;;;;3.55;1.23;;;;;;;13.55;56.29;101319.63;5037045;28;20041;-78
2024/03/04 08:24:03;;;;;;;2.75;1.10;;;;;;;13.45;55.61;101322.16;5038652;28;20039;-79
2024/03/04 08:26:28;;;;;;;2.97;1.13;;;;;;;13.48;56.12;101317.81;5039872;28;20635;-76
2024/03/04 08:28:58;;;;;;;2.97;1.13;;;;;;;13.78;55.12;101319.81;5054587;28;20094;-77
2024/03/04 08:31:23;;;;;;;2.28;1.00;;;;;;;13.52;55.47;101319.63;5069707;22;20041;-50
2024/03/04 08:33:49;;;;;;;4.38;1.10;;;;;;;13.37;55.89;101329.94;5052703;28;20552;-48
2024/03/04 08:36:14;;;;;;;3.80;1.35;;;;;;;13.32;56.10;101323.78;5051835;28;20158;-48
2024/03/04 08:38:39;;;;;;;5.03;1.00;;;;;;;13.45;55.68;101325.66;5053848;28;20055;-47
2024/03/04 08:41:05;;;;;;;5.75;1.38;;;;;;;13.29;56.53;101327.28;5041118;28;20175;-45
2024/03/04 08:43:30;;;;;;;3.20;1.10;;;;;;;13.24;57.09;101330.69;5058634;28;20033;-44
2024/03/04 08:45:55;;;;;;;3.30;1.55;;;;;;;12.96;57.29;101333.00;5059604;28;20086;-46
2024/03/04 08:48:22;;;;;;;3.53;1.20;;;;;;;13.07;57.00;101321.75;5050102;28;20091;-48
2024/03/04 08:50:48;;;;;;;3.65;1.30;;;;;;;12.93;57.76;101335.56;5050588;28;20052;-47
2024/03/04 08:53:14;;;;;;;4.13;1.20;;;;;;;12.94;57.65;101332.09;5049865;28;20065;-48
2024/03/04 08:55:39;;;;;;;5.63;1.50;;;;;;;12.93;57.35;101329.44;5050600;28;20541;-47
2024/03/04 08:58:04;;;;;;;5.45;1.30;;;;;;;12.86;57.56;101346.84;5050345;28;20037;-47
2024/03/04 09:00:30;;;;;;;3.25;1.40;;;;;;;13.25;57.34;101341.19;5050247;28;20488;-46
2024/03/04 09:02:55;;;;;;;4.75;1.50;;;;;;;13.57;56.28;101338.84;5031663;28;20087;-44
2024/03/04 09:05:21;;;;;;;3.00;1.30;;;;;;;13.50;55.74;101336.16;5049722;28;20463;-48
2024/03/04 09:07:48;;;;;;;1.90;1.10;;;;;;;13.84;54.52;101332.09;5050445;28;20033;-49
2024/03/04 09:10:16;;;;;;;3.22;1.40;;;;;;;13.83;54.52;101328.59;5050294;28;20491;-45
2024/03/04 09:12:42;;;;;;;6.90;1.35;;;;;;;13.84;54.17;101337.34;5051525;28;20097;-46
2024/03/04 09:15:12;;;;;;;3.63;1.23;;;;;;;13.72;54.91;101338.97;5050229;28;20061;-47
2024/03/04 09:17:38;;;;;;;3.28;1.33;;;;;;;13.89;54.67;101340.88;5051780;28;20040;-48
2024/03/04 09:20:03;;;;;;;3.45;1.10;;;;;;;14.14;54.39;101346.28;5051061;28;20041;-48
2024/03/04 09:22:29;;;;;;;2.08;1.20;;;;;;;14.15;53.81;101344.50;5049969;28;20088;-47
2024/03/04 09:24:54;;;;;;;4.40;0.90;;;;;;;14.00;53.33;101342.69;5050684;28;20037;-48
2024/03/04 09:27:19;;;;;;;2.05;1.05;;;;;;;14.20;53.20;101342.81;5049995;28;20033;-45
2024/03/04 09:29:46;;;;;;;3.35;1.10;;;;;;;14.44;51.29;101339.50;5050388;28;20547;-46
2024/03/04 09:32:11;;;;;;;2.80;1.02;;;;;;;13.75;54.50;101341.63;5048972;28;20037;-45
2024/03/04 09:34:36;;;;;;;2.47;1.13;;;;;;;13.33;55.85;101352.63;5050188;28;20037;-48
2024/03/04 09:37:03;;;;;;;3.75;1.20;;;;;;;13.64;55.08;101345.03;5049831;28;20407;-46
2024/03/04 09:39:28;;;;;;;1.92;1.20;;;;;;;13.60;55.60;101351.13;5050860;28;20048;-46
2024/03/04 09:41:55;;;;;;;4.93;1.60;;;;;;;14.30;52.38;101344.63;5049507;28;20045;-46
2024/03/04 09:44:21;;;;;;;5.85;2.17;;;;;;;13.95;52.53;101346.16;5049481;28;20040;-46
2024/03/04 09:46:48;;;;;;;5.90;2.28;;;;;;;14.25;52.55;101348.09;5032783;28;20040;-46
2024/03/04 09:49:15;;;;;;;6.32;2.97;;;;;;;14.09;51.70;101345.34;5050488;28;20037;-44
2024/03/04 09:51:41;;;;;;;4.38;2.35;;;;;;;13.66;53.29;101345.94;5050092;28;20033;-46
2024/03/04 09:54:08;;;;;;;5.45;2.50;;;;;;;14.16;52.60;101338.41;5051538;28;20075;-47
2024/03/04 09:56:34;;;;;;;6.25;2.67;;;;;;;14.15;52.56;101337.53;5054727;28;20037;-48
2024/03/04 09:58:59;;;;;;;7.78;3.05;;;;;;;14.70;51.91;101340.47;5052476;28;20043;-46
2024/03/04 10:01:25;;;;;;;5.93;3.20;;;;;;;15.01;50.58;101342.31;5050423;28;20522;-44
2024/03/04 10:03:52;;;;;;;7.07;4.03;;;;;;;14.18;51.28;101345.44;5050608;28;20632;-46
2024/03/04 10:06:17;;;;;;;6.70;3.67;;;;;;;13.93;52.62;101340.00;5049812;28;20041;-48
2024/03/04 10:08:43;;;;;;;6.57;4.07;;;;;;;14.10;52.78;101344.50;5050227;28;20387;-46
2024/03/04 10:11:09;;;;;;;7.82;4.57;;;;;;;13.76;52.05;101347.75;5048661;28;20128;-46
2024/03/04 10:13:35;;;;;;;8.15;4.40;;;;;;;14.64;49.28;101342.22;5049370;28;20509;-45
2024/03/04 10:16:00;;;;;;;9.50;4.80;;;;;;;13.84;51.70;101342.56;5052132;28;20120;-47
2024/03/04 10:18:25;;;;;;;9.90;5.13;;;;;;;14.33;49.34;101347.28;5053184;28;20380;-46
2024/03/04 10:20:55;;;;;;;10.65;4.93;;;;;;;14.40;48.92;101341.19;5052814;28;20514;-48
2024/03/04 10:23:23;;;;;;;9.93;5.43;;;;;;;14.23;50.43;101340.19;5052424;28;20048;-46
2024/03/04 10:26:06;;;;;;;11.00;5.05;;;;;;;14.81;48.48;101341.41;5053178;28;20029;-45
2024/03/04 10:28:38;;;;;;;9.00;5.03;;;;;;;15.05;49.04;101340.59;5053163;28;20037;-46
2024/03/04 10:31:13;;;;;;;9.27;5.40;;;;;;;14.13;50.48;101334.03;5052908;28;20553;-44
2024/03/04 10:33:40;;;;;;;10.82;5.32;;;;;;;14.78;46.69;101340.50;5036234;28;20041;-48
2024/03/04 10:36:17;;;;;;;11.45;5.15;;;;;;;14.86;48.20;101341.41;5052627;28;20047;-47
2024/03/04 10:38:44;;;;;;;12.43;5.30;;;;;;;14.84;47.68;101338.78;5054466;28;20064;-46
2024/03/04 10:41:29;;;;;;;8.93;5.05;;;;;;;14.74;47.65;101341.38;5053653;28;20067;-45
2024/03/04 10:43:54;;;;;;;9.85;5.60;;;;;;;15.01;47.52;101337.06;5054501;28;20407;-45
2024/03/04 10:46:20;;;;;;;10.50;5.75;;;;;;;15.33;46.33;101336.25;5053849;28;20033;-45
2024/03/04 10:48:46;;;;;;;12.05;6.05;;;;;;;14.63;48.66;101333.47;5055429;28;20487;-44
2024/03/04 10:51:15;;;;;;;11.82;6.10;;;;;;;14.06;49.60;101339.22;5052673;28;20036;-47
2024/03/04 10:53:40;;;;;;;12.65;6.53;;;;;;;13.84;50.98;101332.97;5053658;28;20033;-46
2024/03/04 10:56:07;;;;;;;11.15;6.72;;;;;;;14.18;50.50;101340.19;5053281;28;20059;-45
2024/03/04 10:58:33;;;;;;;12.40;6.57;;;;;;;14.93;48.81;101335.31;5053151;28;20029;-46
2024/03/04 11:01:03;;;;;;;11.82;6.57;;;;;;;15.29;47.27;101334.50;5051569;28;20154;-47
2024/03/04 11:03:30;;;;;;;11.90;6.30;;;;;;;15.15;46.63;101326.59;5052081;28;20067;-49
2024/03/04 11:05:57;;;;;;;10.68;5.95;;;;;;;14.77;46.79;101326.50;5053198;28;20132;-46
2024/03/04 11:08:29;;;;;;;9.77;6.28;;;;;;;15.15;46.14;101329.22;5052357;28;20029;-46
2024/03/04 11:11:06;;;;;;;10.82;5.88;;;;;;;14.77;47.31;101329.13;5052582;28;20033;-46
2024/03/04 11:13:35;;;;;;;11.63;5.18;;;;;;;14.77;45.60;101331.75;5052518;28;20071;-47
2024/03/04 11:16:05;;;;;;;11.73;6.10;;;;;;;14.96;45.32;101328.31;5051900;28;20037;-46
2024/03/04 11:18:46;;;;;;;17.20;6.20;;;;;;;15.13;45.01;101330.97;5052312;28;20381;-48
2024/03/04 11:21:13;;;;;;;13.60;5.57;;;;;;;14.84;46.00;101328.28;5051620;28;20458;-46
2024/03/04 11:23:39;;;;;;;8.73;5.75;;;;;;;14.78;46.04;101336.13;5052542;28;20037;-47
2024/03/04 11:26:05;;;;;;;10.70;5.80;;;;;;;14.96;45.50;101333.56;5051864;28;20094;-48